sensor_id;sensor_type;location;lat;lon;timestamp;temperature;humidity
74416;SHT31;62850;42.428;25.618;2024-01-16T00:00:50;3.99;66.63
74416;SHT31;62850;42.428;25.618;2024-01-16T00:03:15;4.04;66.61
74416;SHT31;62850;42.428;25.618;2024-01-16T00:05:41;3.96;66.78
74416;SHT31;62850;42.428;25.618;2024-01-16T00:08:06;3.96;66.94
74416;SHT31;62850;42.428;25.618;2024-01-16T00:10:32;4.02;66.89
74416;SHT31;62850;42.428;25.618;2024-01-16T00:12:57;4.03;66.88
74416;SHT31;62850;42.428;25.618;2024-01-16T00:15:23;4.07;66.88
74416;SHT31;62850;42.428;25.618;2024-01-16T00:17:48;4.13;66.76
74416;SHT31;62850;42.428;25.618;2024-01-16T00:20:14;4.13;66.95
74416;SHT31;62850;42.428;25.618;2024-01-16T00:22:39;4.14;67.04
74416;SHT31;62850;42.428;25.618;2024-01-16T00:25:05;4.20;66.76
74416;SHT31;62850;42.428;25.618;2024-01-16T00:27:31;3.99;66.99
74416;SHT31;62850;42.428;25.618;2024-01-16T00:29:57;3.78;67.90
74416;SHT31;62850;42.428;25.618;2024-01-16T00:32:22;3.89;67.90
74416;SHT31;62850;42.428;25.618;2024-01-16T00:34:47;3.93;67.81
74416;SHT31;62850;42.428;25.618;2024-01-16T00:37:13;3.93;68.07
74416;SHT31;62850;42.428;25.618;2024-01-16T00:39:38;4.10;67.62
74416;SHT31;62850;42.428;25.618;2024-01-16T00:42:04;4.20;67.34
74416;SHT31;62850;42.428;25.618;2024-01-16T00:44:31;4.20;67.25
74416;SHT31;62850;42.428;25.618;2024-01-16T00:46:56;4.29;67.10
74416;SHT31;62850;42.428;25.618;2024-01-16T00:49:22;4.29;66.93
74416;SHT31;62850;42.428;25.618;2024-01-16T00:51:48;4.37;66.70
74416;SHT31;62850;42.428;25.618;2024-01-16T00:54:13;4.37;66.74
74416;SHT31;62850;42.428;25.618;2024-01-16T00:56:41;4.34;66.68
74416;SHT31;62850;42.428;25.618;2024-01-16T00:59:07;4.31;66.58
74416;SHT31;62850;42.428;25.618;2024-01-16T01:01:32;4.21;66.78
74416;SHT31;62850;42.428;25.618;2024-01-16T01:03:58;4.18;67.21
74416;SHT31;62850;42.428;25.618;2024-01-16T01:06:23;4.24;67.17
74416;SHT31;62850;42.428;25.618;2024-01-16T01:08:49;4.29;67.02
74416;SHT31;62850;42.428;25.618;2024-01-16T01:11:14;4.38;66.89
74416;SHT31;62850;42.428;25.618;2024-01-16T01:13:39;4.41;66.68
74416;SHT31;62850;42.428;25.618;2024-01-16T01:16:05;4.41;66.49
74416;SHT31;62850;42.428;25.618;2024-01-16T01:18:31;4.40;66.52
74416;SHT31;62850;42.428;25.618;2024-01-16T01:20:56;4.43;66.46
74416;SHT31;62850;42.428;25.618;2024-01-16T01:23:22;4.47;66.25
74416;SHT31;62850;42.428;25.618;2024-01-16T01:25:47;4.48;66.22
74416;SHT31;62850;42.428;25.618;2024-01-16T01:28:13;4.31;66.51
74416;SHT31;62850;42.428;25.618;2024-01-16T01:30:38;4.21;66.61
74416;SHT31;62850;42.428;25.618;2024-01-16T01:33:04;4.23;66.67
74416;SHT31;62850;42.428;25.618;2024-01-16T01:35:30;4.30;66.38
74416;SHT31;62850;42.428;25.618;2024-01-16T01:37:55;4.25;66.41
74416;SHT31;62850;42.428;25.618;2024-01-16T01:40:20;4.02;66.95
74416;SHT31;62850;42.428;25.618;2024-01-16T01:42:46;4.02;67.37
74416;SHT31;62850;42.428;25.618;2024-01-16T01:45:11;4.16;67.01
74416;SHT31;62850;42.428;25.618;2024-01-16T01:47:38;4.23;66.71
74416;SHT31;62850;42.428;25.618;2024-01-16T01:50:06;4.27;66.16
74416;SHT31;62850;42.428;25.618;2024-01-16T01:52:33;4.31;66.18
74416;SHT31;62850;42.428;25.618;2024-01-16T01:54:59;4.31;66.13
74416;SHT31;62850;42.428;25.618;2024-01-16T01:57:25;4.10;66.93
74416;SHT31;62850;42.428;25.618;2024-01-16T01:59:52;4.00;67.23
74416;SHT31;62850;42.428;25.618;2024-01-16T02:02:17;3.87;67.77
74416;SHT31;62850;42.428;25.618;2024-01-16T02:04:44;4.03;67.56
74416;SHT31;62850;42.428;25.618;2024-01-16T02:07:12;4.16;67.18
74416;SHT31;62850;42.428;25.618;2024-01-16T02:09:37;4.21;67.06
74416;SHT31;62850;42.428;25.618;2024-01-16T02:12:04;4.25;66.95
74416;SHT31;62850;42.428;25.618;2024-01-16T02:14:30;4.23;67.06
74416;SHT31;62850;42.428;25.618;2024-01-16T02:16:55;4.06;67.36
74416;SHT31;62850;42.428;25.618;2024-01-16T02:19:20;4.02;67.70
74416;SHT31;62850;42.428;25.618;2024-01-16T02:21:50;4.10;67.55
74416;SHT31;62850;42.428;25.618;2024-01-16T02:24:18;4.14;67.50
74416;SHT31;62850;42.428;25.618;2024-01-16T02:26:44;4.13;67.48
74416;SHT31;62850;42.428;25.618;2024-01-16T02:29:10;4.03;67.68
74416;SHT31;62850;42.428;25.618;2024-01-16T02:31:36;3.89;68.29
74416;SHT31;62850;42.428;25.618;2024-01-16T02:34:01;3.82;68.75
74416;SHT31;62850;42.428;25.618;2024-01-16T02:36:27;3.73;68.78
74416;SHT31;62850;42.428;25.618;2024-01-16T02:38:54;3.86;68.73
74416;SHT31;62850;42.428;25.618;2024-01-16T02:41:20;3.87;68.55
74416;SHT31;62850;42.428;25.618;2024-01-16T02:43:46;3.87;68.51
74416;SHT31;62850;42.428;25.618;2024-01-16T02:46:12;3.89;68.41
74416;SHT31;62850;42.428;25.618;2024-01-16T02:48:38;3.94;68.35
74416;SHT31;62850;42.428;25.618;2024-01-16T02:51:04;3.82;68.38
74416;SHT31;62850;42.428;25.618;2024-01-16T02:53:31;3.85;68.69
74416;SHT31;62850;42.428;25.618;2024-01-16T02:55:56;3.86;68.53
74416;SHT31;62850;42.428;25.618;2024-01-16T02:58:24;3.85;68.48
74416;SHT31;62850;42.428;25.618;2024-01-16T03:00:50;3.89;68.29
74416;SHT31;62850;42.428;25.618;2024-01-16T03:03:16;3.89;68.19
74416;SHT31;62850;42.428;25.618;2024-01-16T03:05:42;3.87;68.24
74416;SHT31;62850;42.428;25.618;2024-01-16T03:08:07;3.73;68.50
74416;SHT31;62850;42.428;25.618;2024-01-16T03:10:33;3.76;68.84
74416;SHT31;62850;42.428;25.618;2024-01-16T03:12:58;3.85;68.58
74416;SHT31;62850;42.428;25.618;2024-01-16T03:15:24;3.90;68.43
74416;SHT31;62850;42.428;25.618;2024-01-16T03:17:49;3.97;68.24
74416;SHT31;62850;42.428;25.618;2024-01-16T03:20:17;3.93;68.26
74416;SHT31;62850;42.428;25.618;2024-01-16T03:22:48;3.86;68.55
74416;SHT31;62850;42.428;25.618;2024-01-16T03:25:14;3.87;68.77
74416;SHT31;62850;42.428;25.618;2024-01-16T03:27:39;3.94;68.73
74416;SHT31;62850;42.428;25.618;2024-01-16T03:30:05;3.97;68.60
74416;SHT31;62850;42.428;25.618;2024-01-16T03:32:31;4.09;68.27
74416;SHT31;62850;42.428;25.618;2024-01-16T03:34:57;4.14;68.19
74416;SHT31;62850;42.428;25.618;2024-01-16T03:37:22;4.16;68.13
74416;SHT31;62850;42.428;25.618;2024-01-16T03:39:48;4.23;67.98
74416;SHT31;62850;42.428;25.618;2024-01-16T03:42:15;4.20;68.03
74416;SHT31;62850;42.428;25.618;2024-01-16T03:44:41;4.24;68.28
74416;SHT31;62850;42.428;25.618;2024-01-16T03:47:07;4.27;68.47
74416;SHT31;62850;42.428;25.618;2024-01-16T03:49:33;4.33;68.39
74416;SHT31;62850;42.428;25.618;2024-01-16T03:51:58;4.37;68.19
74416;SHT31;62850;42.428;25.618;2024-01-16T03:54:24;4.47;67.98
74416;SHT31;62850;42.428;25.618;2024-01-16T03:56:49;4.51;67.85
74416;SHT31;62850;42.428;25.618;2024-01-16T03:59:16;4.55;67.68
74416;SHT31;62850;42.428;25.618;2024-01-16T04:01:41;4.58;67.50
74416;SHT31;62850;42.428;25.618;2024-01-16T04:04:09;4.67;67.20
74416;SHT31;62850;42.428;25.618;2024-01-16T04:06:35;4.64;67.26
74416;SHT31;62850;42.428;25.618;2024-01-16T04:09:01;4.62;67.25
74416;SHT31;62850;42.428;25.618;2024-01-16T04:11:26;4.47;67.89
74416;SHT31;62850;42.428;25.618;2024-01-16T04:13:52;4.51;68.06
74416;SHT31;62850;42.428;25.618;2024-01-16T04:16:18;4.50;68.26
74416;SHT31;62850;42.428;25.618;2024-01-16T04:18:43;4.58;68.20
74416;SHT31;62850;42.428;25.618;2024-01-16T04:21:09;4.67;67.95
74416;SHT31;62850;42.428;25.618;2024-01-16T04:23:34;4.65;67.83
74416;SHT31;62850;42.428;25.618;2024-01-16T04:26:00;4.73;67.87
74416;SHT31;62850;42.428;25.618;2024-01-16T04:28:26;4.75;67.92
74416;SHT31;62850;42.428;25.618;2024-01-16T04:30:52;4.76;67.75
74416;SHT31;62850;42.428;25.618;2024-01-16T04:33:17;4.75;67.59
74416;SHT31;62850;42.428;25.618;2024-01-16T04:35:44;4.78;67.27
74416;SHT31;62850;42.428;25.618;2024-01-16T04:38:09;4.64;67.30
74416;SHT31;62850;42.428;25.618;2024-01-16T04:40:35;4.61;67.59
74416;SHT31;62850;42.428;25.618;2024-01-16T04:43:00;4.65;67.47
74416;SHT31;62850;42.428;25.618;2024-01-16T04:45:26;4.71;67.31
74416;SHT31;62850;42.428;25.618;2024-01-16T04:47:51;4.71;67.28
74416;SHT31;62850;42.428;25.618;2024-01-16T04:50:18;4.68;67.45
74416;SHT31;62850;42.428;25.618;2024-01-16T04:52:43;4.67;67.43
74416;SHT31;62850;42.428;25.618;2024-01-16T04:55:09;4.67;67.41
74416;SHT31;62850;42.428;25.618;2024-01-16T04:57:34;4.69;67.33
74416;SHT31;62850;42.428;25.618;2024-01-16T05:00:00;4.65;67.31
74416;SHT31;62850;42.428;25.618;2024-01-16T05:02:25;4.60;67.52
74416;SHT31;62850;42.428;25.618;2024-01-16T05:04:51;4.61;67.61
74416;SHT31;62850;42.428;25.618;2024-01-16T05:07:18;4.55;67.68
74416;SHT31;62850;42.428;25.618;2024-01-16T05:09:46;4.48;67.99
74416;SHT31;62850;42.428;25.618;2024-01-16T05:12:11;4.23;68.85
74416;SHT31;62850;42.428;25.618;2024-01-16T05:14:37;4.27;68.83
74416;SHT31;62850;42.428;25.618;2024-01-16T05:17:02;4.30;68.67
74416;SHT31;62850;42.428;25.618;2024-01-16T05:19:28;4.30;68.37
74416;SHT31;62850;42.428;25.618;2024-01-16T05:21:53;4.34;68.65
74416;SHT31;62850;42.428;25.618;2024-01-16T05:24:19;4.31;68.47
74416;SHT31;62850;42.428;25.618;2024-01-16T05:26:45;4.24;68.76
74416;SHT31;62850;42.428;25.618;2024-01-16T05:29:10;4.31;68.84
74416;SHT31;62850;42.428;25.618;2024-01-16T05:31:40;4.38;68.46
74416;SHT31;62850;42.428;25.618;2024-01-16T05:34:06;4.41;68.46
74416;SHT31;62850;42.428;25.618;2024-01-16T05:36:32;4.45;68.33
74416;SHT31;62850;42.428;25.618;2024-01-16T05:38:57;4.43;68.47
74416;SHT31;62850;42.428;25.618;2024-01-16T05:41:23;4.45;68.28
74416;SHT31;62850;42.428;25.618;2024-01-16T05:43:48;4.45;68.04
74416;SHT31;62850;42.428;25.618;2024-01-16T05:46:13;4.38;68.27
74416;SHT31;62850;42.428;25.618;2024-01-16T05:48:39;4.48;68.54
74416;SHT31;62850;42.428;25.618;2024-01-16T05:51:04;4.52;68.26
74416;SHT31;62850;42.428;25.618;2024-01-16T05:53:30;4.58;68.09
74416;SHT31;62850;42.428;25.618;2024-01-16T05:55:56;4.64;67.99
74416;SHT31;62850;42.428;25.618;2024-01-16T05:58:22;4.69;67.76
74416;SHT31;62850;42.428;25.618;2024-01-16T06:00:47;4.69;67.17
74416;SHT31;62850;42.428;25.618;2024-01-16T06:03:12;4.67;67.28
74416;SHT31;62850;42.428;25.618;2024-01-16T06:05:38;4.67;67.29
74416;SHT31;62850;42.428;25.618;2024-01-16T06:08:03;4.75;66.51
74416;SHT31;62850;42.428;25.618;2024-01-16T06:10:29;4.76;66.68
74416;SHT31;62850;42.428;25.618;2024-01-16T06:12:54;4.71;66.40
74416;SHT31;62850;42.428;25.618;2024-01-16T06:15:20;4.73;66.21
74416;SHT31;62850;42.428;25.618;2024-01-16T06:17:45;4.73;66.32
74416;SHT31;62850;42.428;25.618;2024-01-16T06:20:11;4.78;66.08
74416;SHT31;62850;42.428;25.618;2024-01-16T06:22:36;4.83;66.09
74416;SHT31;62850;42.428;25.618;2024-01-16T06:25:02;4.85;65.98
74416;SHT31;62850;42.428;25.618;2024-01-16T06:27:27;4.93;65.75
74416;SHT31;62850;42.428;25.618;2024-01-16T06:29:53;4.91;65.82
74416;SHT31;62850;42.428;25.618;2024-01-16T06:32:18;4.93;65.37
74416;SHT31;62850;42.428;25.618;2024-01-16T06:34:44;5.10;66.79
74416;SHT31;62850;42.428;25.618;2024-01-16T06:37:09;5.62;65.97
74416;SHT31;62850;42.428;25.618;2024-01-16T06:39:36;6.18;64.24
74416;SHT31;62850;42.428;25.618;2024-01-16T06:42:02;6.60;62.75
74416;SHT31;62850;42.428;25.618;2024-01-16T06:44:29;6.94;61.44
74416;SHT31;62850;42.428;25.618;2024-01-16T06:46:55;7.15;60.53
74416;SHT31;62850;42.428;25.618;2024-01-16T06:49:20;7.29;59.85
74416;SHT31;62850;42.428;25.618;2024-01-16T06:51:46;7.48;58.44
74416;SHT31;62850;42.428;25.618;2024-01-16T06:54:11;7.56;58.18
74416;SHT31;62850;42.428;25.618;2024-01-16T06:56:37;7.60;57.52
74416;SHT31;62850;42.428;25.618;2024-01-16T06:59:02;7.65;56.77
74416;SHT31;62850;42.428;25.618;2024-01-16T07:01:28;7.55;56.99
74416;SHT31;62850;42.428;25.618;2024-01-16T07:03:53;7.56;56.76
74416;SHT31;62850;42.428;25.618;2024-01-16T07:06:19;7.56;56.55
74416;SHT31;62850;42.428;25.618;2024-01-16T07:08:44;7.55;56.10
74416;SHT31;62850;42.428;25.618;2024-01-16T07:11:10;7.56;55.72
74416;SHT31;62850;42.428;25.618;2024-01-16T07:13:39;7.55;55.43
74416;SHT31;62850;42.428;25.618;2024-01-16T07:16:04;7.52;55.41
74416;SHT31;62850;42.428;25.618;2024-01-16T07:18:30;7.56;55.08
74416;SHT31;62850;42.428;25.618;2024-01-16T07:20:55;7.67;54.54
74416;SHT31;62850;42.428;25.618;2024-01-16T07:23:21;7.79;53.91
74416;SHT31;62850;42.428;25.618;2024-01-16T07:25:46;7.94;53.38
74416;SHT31;62850;42.428;25.618;2024-01-16T07:28:12;8.02;52.56
74416;SHT31;62850;42.428;25.618;2024-01-16T07:30:37;8.15;52.17
74416;SHT31;62850;42.428;25.618;2024-01-16T07:33:03;8.20;51.76
74416;SHT31;62850;42.428;25.618;2024-01-16T07:35:29;8.32;51.26
74416;SHT31;62850;42.428;25.618;2024-01-16T07:37:54;8.38;50.56
74416;SHT31;62850;42.428;25.618;2024-01-16T07:40:20;8.46;50.55
74416;SHT31;62850;42.428;25.618;2024-01-16T07:42:45;8.52;49.40
74416;SHT31;62850;42.428;25.618;2024-01-16T07:45:11;8.51;48.96
74416;SHT31;62850;42.428;25.618;2024-01-16T07:47:36;8.49;48.93
74416;SHT31;62850;42.428;25.618;2024-01-16T07:50:03;8.49;48.85
74416;SHT31;62850;42.428;25.618;2024-01-16T07:52:28;8.44;48.87
74416;SHT31;62850;42.428;25.618;2024-01-16T07:54:54;8.39;48.64
74416;SHT31;62850;42.428;25.618;2024-01-16T07:57:19;8.35;48.85
74416;SHT31;62850;42.428;25.618;2024-01-16T07:59:46;8.35;48.34
74416;SHT31;62850;42.428;25.618;2024-01-16T08:02:11;8.27;48.64
74416;SHT31;62850;42.428;25.618;2024-01-16T08:04:37;8.20;48.47
74416;SHT31;62850;42.428;25.618;2024-01-16T08:07:02;8.17;48.57
74416;SHT31;62850;42.428;25.618;2024-01-16T08:09:28;8.12;48.75
74416;SHT31;62850;42.428;25.618;2024-01-16T08:11:53;8.14;48.57
74416;SHT31;62850;42.428;25.618;2024-01-16T08:14:19;8.17;48.59
74416;SHT31;62850;42.428;25.618;2024-01-16T08:16:44;8.21;48.86
74416;SHT31;62850;42.428;25.618;2024-01-16T08:19:10;8.30;48.63
74416;SHT31;62850;42.428;25.618;2024-01-16T08:21:35;8.28;48.54
74416;SHT31;62850;42.428;25.618;2024-01-16T08:24:01;8.32;48.43
74416;SHT31;62850;42.428;25.618;2024-01-16T08:26:27;8.30;48.27
74416;SHT31;62850;42.428;25.618;2024-01-16T08:28:54;8.30;48.27
74416;SHT31;62850;42.428;25.618;2024-01-16T08:31:20;8.32;48.35
74416;SHT31;62850;42.428;25.618;2024-01-16T08:33:45;8.24;48.27
74416;SHT31;62850;42.428;25.618;2024-01-16T08:36:12;8.22;48.34
74416;SHT31;62850;42.428;25.618;2024-01-16T08:38:38;8.31;48.45
74416;SHT31;62850;42.428;25.618;2024-01-16T08:41:03;8.39;48.08
74416;SHT31;62850;42.428;25.618;2024-01-16T08:43:34;8.44;47.25
74416;SHT31;62850;42.428;25.618;2024-01-16T08:46:00;8.48;47.17
74416;SHT31;62850;42.428;25.618;2024-01-16T08:48:25;8.60;46.88
74416;SHT31;62850;42.428;25.618;2024-01-16T08:50:51;8.65;46.61
74416;SHT31;62850;42.428;25.618;2024-01-16T08:53:17;8.65;46.32
74416;SHT31;62850;42.428;25.618;2024-01-16T08:55:42;8.59;46.51
74416;SHT31;62850;42.428;25.618;2024-01-16T08:58:08;8.51;46.58
74416;SHT31;62850;42.428;25.618;2024-01-16T09:00:33;8.45;46.60
74416;SHT31;62850;42.428;25.618;2024-01-16T09:02:59;8.49;46.56
74416;SHT31;62850;42.428;25.618;2024-01-16T09:05:24;8.42;46.35
74416;SHT31;62850;42.428;25.618;2024-01-16T09:07:51;8.42;46.49
74416;SHT31;62850;42.428;25.618;2024-01-16T09:10:17;8.44;46.08
74416;SHT31;62850;42.428;25.618;2024-01-16T09:12:43;8.46;45.65
74416;SHT31;62850;42.428;25.618;2024-01-16T09:15:09;8.51;45.08
74416;SHT31;62850;42.428;25.618;2024-01-16T09:17:35;8.48;45.02
74416;SHT31;62850;42.428;25.618;2024-01-16T09:20:00;8.46;45.59
74416;SHT31;62850;42.428;25.618;2024-01-16T09:22:26;8.59;44.51
74416;SHT31;62850;42.428;25.618;2024-01-16T09:24:52;8.73;43.78
74416;SHT31;62850;42.428;25.618;2024-01-16T09:27:17;8.77;43.69
74416;SHT31;62850;42.428;25.618;2024-01-16T09:29:43;8.80;43.86
74416;SHT31;62850;42.428;25.618;2024-01-16T09:32:08;8.94;44.11
74416;SHT31;62850;42.428;25.618;2024-01-16T09:34:34;9.04;43.61
74416;SHT31;62850;42.428;25.618;2024-01-16T09:36:59;9.09;43.32
74416;SHT31;62850;42.428;25.618;2024-01-16T09:39:28;9.09;43.28
74416;SHT31;62850;42.428;25.618;2024-01-16T09:42:00;9.09;42.87
74416;SHT31;62850;42.428;25.618;2024-01-16T09:44:29;9.14;42.59
74416;SHT31;62850;42.428;25.618;2024-01-16T09:46:55;9.19;42.44
74416;SHT31;62850;42.428;25.618;2024-01-16T09:49:21;9.13;42.51
74416;SHT31;62850;42.428;25.618;2024-01-16T09:51:48;9.13;42.41
74416;SHT31;62850;42.428;25.618;2024-01-16T09:54:14;9.16;42.29
74416;SHT31;62850;42.428;25.618;2024-01-16T09:56:42;9.27;42.19
74416;SHT31;62850;42.428;25.618;2024-01-16T09:59:09;9.32;42.00
74416;SHT31;62850;42.428;25.618;2024-01-16T10:01:36;9.45;41.85
74416;SHT31;62850;42.428;25.618;2024-01-16T10:04:02;9.51;41.30
74416;SHT31;62850;42.428;25.618;2024-01-16T10:06:27;9.67;40.89
74416;SHT31;62850;42.428;25.618;2024-01-16T10:08:54;9.61;40.36
74416;SHT31;62850;42.428;25.618;2024-01-16T10:11:20;9.68;40.08
74416;SHT31;62850;42.428;25.618;2024-01-16T10:13:45;9.79;39.43
74416;SHT31;62850;42.428;25.618;2024-01-16T10:16:13;9.75;39.19
74416;SHT31;62850;42.428;25.618;2024-01-16T10:18:39;9.74;38.66
74416;SHT31;62850;42.428;25.618;2024-01-16T10:21:04;9.90;38.22
74416;SHT31;62850;42.428;25.618;2024-01-16T10:23:31;9.86;36.94
74416;SHT31;62850;42.428;25.618;2024-01-16T10:28:33;10.03;35.49
74416;SHT31;62850;42.428;25.618;2024-01-16T10:31:09;10.10;35.49
74416;SHT31;62850;42.428;25.618;2024-01-16T10:33:35;10.02;35.15
74416;SHT31;62850;42.428;25.618;2024-01-16T10:36:12;10.00;35.72
74416;SHT31;62850;42.428;25.618;2024-01-16T10:38:42;9.98;35.22
74416;SHT31;62850;42.428;25.618;2024-01-16T10:43:34;9.82;34.91
74416;SHT31;62850;42.428;25.618;2024-01-16T10:46:09;9.69;35.33
74416;SHT31;62850;42.428;25.618;2024-01-16T10:48:39;9.68;35.13
74416;SHT31;62850;42.428;25.618;2024-01-16T10:51:15;9.78;35.40
74416;SHT31;62850;42.428;25.618;2024-01-16T10:53:51;9.72;35.52
74416;SHT31;62850;42.428;25.618;2024-01-16T10:56:19;9.74;35.13
74416;SHT31;62850;42.428;25.618;2024-01-16T10:58:45;9.78;34.97
74416;SHT31;62850;42.428;25.618;2024-01-16T11:01:15;9.81;35.02
74416;SHT31;62850;42.428;25.618;2024-01-16T11:03:48;9.86;35.18
74416;SHT31;62850;42.428;25.618;2024-01-16T11:06:15;9.88;35.22
74416;SHT31;62850;42.428;25.618;2024-01-16T11:08:41;9.96;35.54
74416;SHT31;62850;42.428;25.618;2024-01-16T11:11:08;10.06;35.36
74416;SHT31;62850;42.428;25.618;2024-01-16T11:13:34;10.00;35.64
74416;SHT31;62850;42.428;25.618;2024-01-16T11:16:01;9.99;35.95
74416;SHT31;62850;42.428;25.618;2024-01-16T11:18:27;10.00;36.16
74416;SHT31;62850;42.428;25.618;2024-01-16T11:20:54;10.05;36.20
74416;SHT31;62850;42.428;25.618;2024-01-16T11:23:20;10.13;35.98
74416;SHT31;62850;42.428;25.618;2024-01-16T11:25:46;10.30;36.00
74416;SHT31;62850;42.428;25.618;2024-01-16T11:28:13;10.41;35.79
74416;SHT31;62850;42.428;25.618;2024-01-16T11:30:40;10.71;36.01
74416;SHT31;62850;42.428;25.618;2024-01-16T11:33:06;10.72;34.92
74416;SHT31;62850;42.428;25.618;2024-01-16T11:35:36;10.79;36.18
74416;SHT31;62850;42.428;25.618;2024-01-16T11:38:09;10.77;36.68
74416;SHT31;62850;42.428;25.618;2024-01-16T11:40:35;10.84;35.07
74416;SHT31;62850;42.428;25.618;2024-01-16T11:45:58;10.51;34.55
74416;SHT31;62850;42.428;25.618;2024-01-16T11:48:24;10.48;35.23
74416;SHT31;62850;42.428;25.618;2024-01-16T11:50:52;10.51;34.95
74416;SHT31;62850;42.428;25.618;2024-01-16T11:53:34;10.56;34.20
74416;SHT31;62850;42.428;25.618;2024-01-16T11:56:15;10.58;35.35
74416;SHT31;62850;42.428;25.618;2024-01-16T11:59:12;10.64;34.77
74416;SHT31;62850;42.428;25.618;2024-01-16T12:01:43;10.74;34.08
74416;SHT31;62850;42.428;25.618;2024-01-16T12:04:09;10.71;34.39
74416;SHT31;62850;42.428;25.618;2024-01-16T12:06:36;10.50;33.58
74416;SHT31;62850;42.428;25.618;2024-01-16T12:09:16;10.40;33.98
74416;SHT31;62850;42.428;25.618;2024-01-16T12:12:04;10.29;33.29
74416;SHT31;62850;42.428;25.618;2024-01-16T12:14:30;10.16;33.73
74416;SHT31;62850;42.428;25.618;2024-01-16T12:17:11;10.16;33.59
74416;SHT31;62850;42.428;25.618;2024-01-16T12:19:37;10.17;33.69
74416;SHT31;62850;42.428;25.618;2024-01-16T12:22:07;10.24;34.58
74416;SHT31;62850;42.428;25.618;2024-01-16T12:24:33;10.17;34.03
74416;SHT31;62850;42.428;25.618;2024-01-16T12:26:58;10.19;33.81
74416;SHT31;62850;42.428;25.618;2024-01-16T12:29:24;10.29;33.50
74416;SHT31;62850;42.428;25.618;2024-01-16T12:31:49;10.34;33.67
74416;SHT31;62850;42.428;25.618;2024-01-16T12:34:15;10.50;33.45
74416;SHT31;62850;42.428;25.618;2024-01-16T12:36:40;10.50;33.96
74416;SHT31;62850;42.428;25.618;2024-01-16T12:39:06;10.57;33.48
74416;SHT31;62850;42.428;25.618;2024-01-16T12:41:43;10.60;33.27
74416;SHT31;62850;42.428;25.618;2024-01-16T12:44:10;10.67;33.12
74416;SHT31;62850;42.428;25.618;2024-01-16T12:46:35;10.68;33.57
74416;SHT31;62850;42.428;25.618;2024-01-16T12:49:02;10.72;33.21
74416;SHT31;62850;42.428;25.618;2024-01-16T12:51:27;10.65;33.76
74416;SHT31;62850;42.428;25.618;2024-01-16T12:53:53;10.61;33.21
74416;SHT31;62850;42.428;25.618;2024-01-16T12:56:19;10.61;33.38
74416;SHT31;62850;42.428;25.618;2024-01-16T12:58:46;10.57;34.56
74416;SHT31;62850;42.428;25.618;2024-01-16T13:01:28;10.56;33.66
74416;SHT31;62850;42.428;25.618;2024-01-16T13:03:54;10.51;34.00
74416;SHT31;62850;42.428;25.618;2024-01-16T13:06:22;10.46;34.04
74416;SHT31;62850;42.428;25.618;2024-01-16T13:09:03;10.57;34.59
74416;SHT31;62850;42.428;25.618;2024-01-16T13:11:30;10.46;33.97
74416;SHT31;62850;42.428;25.618;2024-01-16T13:14:02;10.36;34.16
74416;SHT31;62850;42.428;25.618;2024-01-16T13:16:28;10.24;33.35
74416;SHT31;62850;42.428;25.618;2024-01-16T13:19:01;10.12;33.67
74416;SHT31;62850;42.428;25.618;2024-01-16T13:21:27;9.90;33.53
74416;SHT31;62850;42.428;25.618;2024-01-16T13:23:52;9.86;33.43
74416;SHT31;62850;42.428;25.618;2024-01-16T13:26:18;9.85;33.30
74416;SHT31;62850;42.428;25.618;2024-01-16T13:28:43;9.74;33.40
74416;SHT31;62850;42.428;25.618;2024-01-16T13:31:09;9.71;33.73
74416;SHT31;62850;42.428;25.618;2024-01-16T13:33:34;9.75;33.86
74416;SHT31;62850;42.428;25.618;2024-01-16T13:36:00;9.77;33.88
74416;SHT31;62850;42.428;25.618;2024-01-16T13:38:25;9.72;33.67
74416;SHT31;62850;42.428;25.618;2024-01-16T13:40:51;9.78;34.06
74416;SHT31;62850;42.428;25.618;2024-01-16T13:43:17;9.75;33.65
74416;SHT31;62850;42.428;25.618;2024-01-16T13:45:42;9.81;33.95
74416;SHT31;62850;42.428;25.618;2024-01-16T13:48:08;9.81;33.59
74416;SHT31;62850;42.428;25.618;2024-01-16T13:50:33;9.83;33.69
74416;SHT31;62850;42.428;25.618;2024-01-16T13:53:00;9.79;34.06
74416;SHT31;62850;42.428;25.618;2024-01-16T13:55:25;9.74;34.48
74416;SHT31;62850;42.428;25.618;2024-01-16T13:57:51;9.72;34.41
74416;SHT31;62850;42.428;25.618;2024-01-16T14:00:17;9.81;34.05
74416;SHT31;62850;42.428;25.618;2024-01-16T14:02:45;9.71;33.89
74416;SHT31;62850;42.428;25.618;2024-01-16T14:05:12;9.77;33.98
74416;SHT31;62850;42.428;25.618;2024-01-16T14:07:41;9.81;34.06
74416;SHT31;62850;42.428;25.618;2024-01-16T14:10:11;9.83;34.16
74416;SHT31;62850;42.428;25.618;2024-01-16T14:12:41;9.83;34.53
74416;SHT31;62850;42.428;25.618;2024-01-16T14:15:10;9.85;34.53
74416;SHT31;62850;42.428;25.618;2024-01-16T14:17:48;9.67;34.54
74416;SHT31;62850;42.428;25.618;2024-01-16T14:20:15;9.58;34.85
74416;SHT31;62850;42.428;25.618;2024-01-16T14:22:41;9.57;34.88
74416;SHT31;62850;42.428;25.618;2024-01-16T14:25:09;9.57;34.89
74416;SHT31;62850;42.428;25.618;2024-01-16T14:27:43;9.52;35.19
74416;SHT31;62850;42.428;25.618;2024-01-16T14:30:11;9.44;35.36
74416;SHT31;62850;42.428;25.618;2024-01-16T14:32:38;9.38;35.30
74416;SHT31;62850;42.428;25.618;2024-01-16T14:35:05;9.31;35.33
74416;SHT31;62850;42.428;25.618;2024-01-16T14:37:31;9.28;35.49
74416;SHT31;62850;42.428;25.618;2024-01-16T14:39:58;9.27;35.78
74416;SHT31;62850;42.428;25.618;2024-01-16T14:42:27;9.21;35.73
74416;SHT31;62850;42.428;25.618;2024-01-16T14:44:52;9.11;35.96
74416;SHT31;62850;42.428;25.618;2024-01-16T14:47:18;9.00;36.16
74416;SHT31;62850;42.428;25.618;2024-01-16T14:49:43;8.96;36.15
74416;SHT31;62850;42.428;25.618;2024-01-16T14:52:09;8.93;36.14
74416;SHT31;62850;42.428;25.618;2024-01-16T14:54:34;8.84;36.21
74416;SHT31;62850;42.428;25.618;2024-01-16T14:57:00;8.75;36.64
74416;SHT31;62850;42.428;25.618;2024-01-16T14:59:25;8.75;36.79
74416;SHT31;62850;42.428;25.618;2024-01-16T15:01:51;8.76;37.03
74416;SHT31;62850;42.428;25.618;2024-01-16T15:04:18;8.66;36.90
74416;SHT31;62850;42.428;25.618;2024-01-16T15:06:48;8.63;36.84
74416;SHT31;62850;42.428;25.618;2024-01-16T15:09:19;8.62;36.87
74416;SHT31;62850;42.428;25.618;2024-01-16T15:11:47;8.55;36.67
74416;SHT31;62850;42.428;25.618;2024-01-16T15:14:12;8.53;37.21
74416;SHT31;62850;42.428;25.618;2024-01-16T15:16:38;8.53;37.17
74416;SHT31;62850;42.428;25.618;2024-01-16T15:19:03;8.41;37.85
74416;SHT31;62850;42.428;25.618;2024-01-16T15:21:29;8.42;38.25
74416;SHT31;62850;42.428;25.618;2024-01-16T15:23:55;8.37;38.61
74416;SHT31;62850;42.428;25.618;2024-01-16T15:26:21;8.39;38.80
74416;SHT31;62850;42.428;25.618;2024-01-16T15:28:47;8.32;39.13
74416;SHT31;62850;42.428;25.618;2024-01-16T15:31:12;8.30;39.41